Nearby METAR Reports

 

KCOS - Colorado Springs, Colorado, USA
Distance from station: S 6mi, 9km
Updated: Mon, 26-Jun-2017 10:54pm MDT
Partly cloudy
Partly cloudy
 Wind from S
Wind: S 7 mph , 11 km/h
Temperature: 64°F , 18°C
Dew Point: 45°F , 7°C
Humidity: 49%
Barometer: 30.22 inHg , 1023.4 hPa
Clouds: Partly cloudy
Visibility: 10 miles , 16 km
Cloud details: Partly cloudy 11000 ft
2017/06/27 04:54 KCOS 270454Z 19006KT 10SM SCT110 18/07 A3022 RMK AO2 SLP155 T01830067
KAFF - Usaf Academy/Cos, Colorado, USA
Distance from station: NW 7mi, 12km
Updated: Mon, 26-Jun-2017 10:58pm MDT
Clear
Clear
 Wind from ENE
Wind: ENE 3 mph , 6 km/h
Temperature: 63°F , 17°C
Dew Point: 48°F , 9°C
Humidity: 59%
Barometer: 30.23 inHg , 1023.7 hPa
Clouds: Clear
Visibility: 10 miles , 16 km
2017/06/27 04:58 KAFF 270458Z AUTO 07003KT 10SM CLR 17/09 A3023 RMK AO2 SLP152 T01680087
 
KFLY - Co Spngs Meadow, Colorado, USA
Distance from station: ENE 8mi, 13km
Updated: Mon, 26-Jun-2017 10:55pm MDT

 Wind from calm
Wind: Calm
Temperature: 57°F , 14°C
Dew Point: 45°F , 7°C
Humidity: 63%
Barometer: 30.28 inHg , 1025.4 hPa
Visibility: 10 miles , 16 km
2017/06/27 04:55 KFLY 270455Z AUTO 00000KT 10SM 14/07 A3028 RMK AO2 T01400065
KFCS - Fort Carson, Colorado, USA
Distance from station: S 17mi, 27km
Updated: Mon, 26-Jun-2017 10:58pm MDT
Few Clouds
Few Clouds
 Wind from calm
Wind: Calm
Temperature: 63°F , 17°C
Dew Point: 43°F , 6°C
Humidity: 49%
Barometer: 30.19 inHg , 1022.4 hPa
Clouds: Few Clouds
Visibility: 10 miles , 16 km
Cloud details: Few Clouds 21000 ft
2017/06/27 04:58 KFCS 270458Z AUTO 00000KT 10SM FEW210 17/06 A3019 RMK AO2 SLP170 T01690055 $
 
KMNH - Monument/Elbert, Colorado, USA
Distance from station: N 22mi, 35km
Updated: Mon, 26-Jun-2017 11:13pm MDT
Clear
Clear
 Wind from SSW
Wind: SSW 10 mph , 17 km/h
Temperature: 57°F , 14°C
Dew Point: 41°F , 5°C
Humidity: 55%
Barometer: 30.27 inHg , 1025.1 hPa
Clouds: Clear
Visibility: 10 miles , 16 km
2017/06/27 05:13 KMNH 270513Z AUTO 20009KT 10SM CLR 14/05 A3027 RMK AO2
K1V6 - Canon City, Colorado, USA
Distance from station: SSW 39mi, 62km
Updated: Tue, 16-May-2017 7:35am MDT
NOT Current
Clear
Clear
 Wind from W
Wind: W 3 mph , 6 km/h
Temperature: 63°F , 17°C
Dew Point: 28°F , -2°C
Humidity: 27%
Barometer: 29.76 inHg , 1007.8 hPa
Clouds: Clear
Visibility: 10 miles , 16 km
2017/05/16 13:35 K1V6 161335Z AUTO 26003KT 10SM CLR 17/M02 A2976 RMK AO2
 
KPUB - Pueblo, Colorado, USA
Distance from station: SSE 44mi, 71km
Updated: Mon, 26-Jun-2017 10:53pm MDT
Clear
Clear
 Wind from calm
Wind: Calm
Temperature: 64°F , 18°C
Dew Point: 46°F , 8°C
Humidity: 52%
Barometer: 30.13 inHg , 1020.3 hPa
Clouds: Clear
Visibility: 10 miles , 16 km
2017/06/27 04:53 KPUB 270453Z AUTO 00000KT 10SM CLR 18/08 A3013 RMK AO2 SLP141 T01830083
KAPA - Denver/Arapahoe, Colorado, USA
Distance from station: N 47mi, 75km
Updated: Mon, 26-Jun-2017 10:53pm MDT
Few Clouds
Few Clouds
 Wind from SSE
Wind: SSE 14 mph , 22 km/h
Temperature: 68°F , 20°C
Dew Point: 48°F , 9°C
Humidity: 49%
Barometer: 30.15 inHg , 1021 hPa
Clouds: Few Clouds
Visibility: 10 miles , 16 km
Cloud details: Few Clouds 8000 ft
Few Clouds 15000 ft
2017/06/27 04:53 KAPA 270453Z 16012KT 10SM FEW080 FEW150 20/09 A3015 RMK AO2 SLP139 T02000094